Amado, Arizona
Current Conditions -  °F | °C
As of 9:54 PM on Friday 31 Oct 2014 (Local Time) from KOLS Reporting Station
Clear Clear  
Wind Chill: 64°   Ceiling: Unl
Heat Index: 64°   Visibility: 10mi
Dew Point: 47°   Wind: 7mph
Humidity: 54%   Direction: 150°SSE
Pressure: 30.02"   Gusts: NA
Location:  31.71°N, 111.07°W
Report Text: KOLS 010454Z AUTO 15006KT 10SM CLR 18/08 A3002 RMK AO2 SLP108 T01780083
Loading
Personal Weather Stations






























Interactive Weather Map
Tropical Storm Tracking
New forecast layout! Learn more

10-Day Weather Forecast

Advertisements
Track Severe Weather on mobile